sensor_id;sensor_type;location;lat;lon;timestamp;P1;durP1;ratioP1;P2;durP2;ratioP2
64816;SDS011;53289;45.602;11.904;2023-02-28T00:01:10;13.65;;;7.75;;
64816;SDS011;53289;45.602;11.904;2023-02-28T00:03:39;13.48;;;7.28;;
64816;SDS011;53289;45.602;11.904;2023-02-28T00:06:08;12.18;;;7.43;;
64816;SDS011;53289;45.602;11.904;2023-02-28T00:08:34;12.68;;;7.13;;
64816;SDS011;53289;45.602;11.904;2023-02-28T00:11:02;14.43;;;7.60;;
64816;SDS011;53289;45.602;11.904;2023-02-28T00:13:37;11.07;;;6.70;;
64816;SDS011;53289;45.602;11.904;2023-02-28T00:16:06;14.02;;;7.35;;
64816;SDS011;53289;45.602;11.904;2023-02-28T00:18:34;20.38;;;10.18;;
64816;SDS011;53289;45.602;11.904;2023-02-28T00:21:00;15.68;;;7.88;;
64816;SDS011;53289;45.602;11.904;2023-02-28T00:25:52;13.57;;;7.55;;
64816;SDS011;53289;45.602;11.904;2023-02-28T00:28:18;17.98;;;9.95;;
64816;SDS011;53289;45.602;11.904;2023-02-28T00:30:44;18.73;;;9.00;;
64816;SDS011;53289;45.602;11.904;2023-02-28T00:33:11;20.35;;;11.25;;
64816;SDS011;53289;45.602;11.904;2023-02-28T00:35:37;20.67;;;10.85;;
64816;SDS011;53289;45.602;11.904;2023-02-28T00:38:03;18.55;;;9.05;;
64816;SDS011;53289;45.602;11.904;2023-02-28T00:40:29;14.10;;;6.90;;
64816;SDS011;53289;45.602;11.904;2023-02-28T00:42:55;17.13;;;9.70;;
64816;SDS011;53289;45.602;11.904;2023-02-28T00:45:21;18.75;;;8.95;;
64816;SDS011;53289;45.602;11.904;2023-02-28T00:47:47;21.10;;;10.20;;
64816;SDS011;53289;45.602;11.904;2023-02-28T00:50:16;12.95;;;6.85;;
64816;SDS011;53289;45.602;11.904;2023-02-28T00:52:43;12.68;;;7.20;;
64816;SDS011;53289;45.602;11.904;2023-02-28T00:55:09;23.13;;;10.13;;
64816;SDS011;53289;45.602;11.904;2023-02-28T00:57:35;19.48;;;9.52;;
64816;SDS011;53289;45.602;11.904;2023-02-28T01:00:02;13.35;;;7.05;;
64816;SDS011;53289;45.602;11.904;2023-02-28T01:02:28;14.73;;;8.30;;
64816;SDS011;53289;45.602;11.904;2023-02-28T01:04:54;16.52;;;7.50;;
64816;SDS011;53289;45.602;11.904;2023-02-28T01:07:22;12.00;;;6.40;;
64816;SDS011;53289;45.602;11.904;2023-02-28T01:09:48;11.38;;;6.43;;
64816;SDS011;53289;45.602;11.904;2023-02-28T01:12:14;12.70;;;7.28;;
64816;SDS011;53289;45.602;11.904;2023-02-28T01:14:41;12.98;;;6.60;;
64816;SDS011;53289;45.602;11.904;2023-02-28T01:17:07;12.50;;;6.95;;
64816;SDS011;53289;45.602;11.904;2023-02-28T01:19:33;12.30;;;6.65;;
64816;SDS011;53289;45.602;11.904;2023-02-28T01:22:04;13.07;;;6.78;;
64816;SDS011;53289;45.602;11.904;2023-02-28T01:24:31;12.57;;;6.30;;
64816;SDS011;53289;45.602;11.904;2023-02-28T01:26:57;13.07;;;6.80;;
64816;SDS011;53289;45.602;11.904;2023-02-28T01:29:24;10.90;;;6.22;;
64816;SDS011;53289;45.602;11.904;2023-02-28T01:31:50;11.18;;;6.47;;
64816;SDS011;53289;45.602;11.904;2023-02-28T01:34:15;12.70;;;6.60;;
64816;SDS011;53289;45.602;11.904;2023-02-28T01:36:44;12.88;;;6.63;;
64816;SDS011;53289;45.602;11.904;2023-02-28T01:39:10;12.65;;;6.22;;
64816;SDS011;53289;45.602;11.904;2023-02-28T01:41:36;13.25;;;6.88;;
64816;SDS011;53289;45.602;11.904;2023-02-28T01:44:55;11.43;;;6.32;;
64816;SDS011;53289;45.602;11.904;2023-02-28T01:47:09;11.82;;;5.88;;
64816;SDS011;53289;45.602;11.904;2023-02-28T01:49:35;9.18;;;5.63;;
64816;SDS011;53289;45.602;11.904;2023-02-28T01:52:01;10.43;;;5.53;;
64816;SDS011;53289;45.602;11.904;2023-02-28T01:54:31;11.13;;;6.07;;
64816;SDS011;53289;45.602;11.904;2023-02-28T01:57:13;11.60;;;5.95;;
64816;SDS011;53289;45.602;11.904;2023-02-28T01:59:50;11.65;;;6.32;;
64816;SDS011;53289;45.602;11.904;2023-02-28T02:02:26;15.70;;;7.32;;
64816;SDS011;53289;45.602;11.904;2023-02-28T02:05:01;13.25;;;6.78;;
64816;SDS011;53289;45.602;11.904;2023-02-28T02:07:34;13.30;;;7.03;;
64816;SDS011;53289;45.602;11.904;2023-02-28T02:10:10;11.93;;;6.10;;
64816;SDS011;53289;45.602;11.904;2023-02-28T02:16:04;11.93;;;6.43;;
64816;SDS011;53289;45.602;11.904;2023-02-28T02:18:11;15.18;;;6.72;;
64816;SDS011;53289;45.602;11.904;2023-02-28T02:20:51;14.98;;;6.93;;
64816;SDS011;53289;45.602;11.904;2023-02-28T02:23:38;11.15;;;6.03;;
64816;SDS011;53289;45.602;11.904;2023-02-28T02:34:24;10.52;;;5.65;;
64816;SDS011;53289;45.602;11.904;2023-02-28T02:45:44;10.63;;;6.10;;
64816;SDS011;53289;45.602;11.904;2023-02-28T02:48:19;11.30;;;6.57;;
64816;SDS011;53289;45.602;11.904;2023-02-28T02:50:52;11.93;;;6.15;;
64816;SDS011;53289;45.602;11.904;2023-02-28T02:53:23;10.80;;;5.97;;
64816;SDS011;53289;45.602;11.904;2023-02-28T02:55:55;12.73;;;6.55;;
64816;SDS011;53289;45.602;11.904;2023-02-28T02:58:26;13.20;;;6.65;;
64816;SDS011;53289;45.602;11.904;2023-02-28T03:00:56;12.10;;;6.20;;
64816;SDS011;53289;45.602;11.904;2023-02-28T03:03:25;11.93;;;6.60;;
64816;SDS011;53289;45.602;11.904;2023-02-28T03:05:56;12.18;;;6.70;;
64816;SDS011;53289;45.602;11.904;2023-02-28T03:08:26;10.60;;;6.35;;
64816;SDS011;53289;45.602;11.904;2023-02-28T03:10:56;12.02;;;6.82;;
64816;SDS011;53289;45.602;11.904;2023-02-28T03:27:05;12.43;;;6.60;;
64816;SDS011;53289;45.602;11.904;2023-02-28T03:29:37;13.27;;;6.90;;
64816;SDS011;53289;45.602;11.904;2023-02-28T03:32:12;12.23;;;6.93;;
64816;SDS011;53289;45.602;11.904;2023-02-28T03:34:48;11.77;;;6.50;;
64816;SDS011;53289;45.602;11.904;2023-02-28T03:37:22;13.20;;;6.97;;
64816;SDS011;53289;45.602;11.904;2023-02-28T03:39:59;11.18;;;6.38;;
64816;SDS011;53289;45.602;11.904;2023-02-28T03:42:31;12.43;;;6.65;;
64816;SDS011;53289;45.602;11.904;2023-02-28T03:45:02;12.85;;;7.32;;
64816;SDS011;53289;45.602;11.904;2023-02-28T03:52:47;14.63;;;7.03;;
64816;SDS011;53289;45.602;11.904;2023-02-28T03:55:26;12.75;;;6.90;;
64816;SDS011;53289;45.602;11.904;2023-02-28T03:57:58;12.27;;;6.93;;
64816;SDS011;53289;45.602;11.904;2023-02-28T04:00:39;13.70;;;6.85;;
64816;SDS011;53289;45.602;11.904;2023-02-28T04:03:08;12.25;;;6.68;;
64816;SDS011;53289;45.602;11.904;2023-02-28T04:05:43;13.60;;;7.05;;
64816;SDS011;53289;45.602;11.904;2023-02-28T04:08:21;12.05;;;6.10;;
64816;SDS011;53289;45.602;11.904;2023-02-28T04:10:52;9.57;;;5.53;;
64816;SDS011;53289;45.602;11.904;2023-02-28T04:13:26;13.73;;;6.82;;
64816;SDS011;53289;45.602;11.904;2023-02-28T04:15:51;12.07;;;6.18;;
64816;SDS011;53289;45.602;11.904;2023-02-28T04:18:17;11.38;;;6.35;;
64816;SDS011;53289;45.602;11.904;2023-02-28T04:20:43;11.82;;;6.38;;
64816;SDS011;53289;45.602;11.904;2023-02-28T04:23:09;11.63;;;6.50;;
64816;SDS011;53289;45.602;11.904;2023-02-28T04:25:35;12.13;;;6.15;;
64816;SDS011;53289;45.602;11.904;2023-02-28T04:28:01;14.07;;;7.13;;
64816;SDS011;53289;45.602;11.904;2023-02-28T04:30:27;14.00;;;6.30;;
64816;SDS011;53289;45.602;11.904;2023-02-28T04:32:54;13.40;;;6.85;;
64816;SDS011;53289;45.602;11.904;2023-02-28T04:35:20;12.68;;;6.50;;
64816;SDS011;53289;45.602;11.904;2023-02-28T04:37:46;11.70;;;6.85;;
64816;SDS011;53289;45.602;11.904;2023-02-28T04:40:12;11.02;;;6.40;;
64816;SDS011;53289;45.602;11.904;2023-02-28T04:42:38;13.60;;;7.32;;
64816;SDS011;53289;45.602;11.904;2023-02-28T04:45:04;13.05;;;6.78;;
64816;SDS011;53289;45.602;11.904;2023-02-28T04:47:30;14.48;;;6.80;;
64816;SDS011;53289;45.602;11.904;2023-02-28T04:49:56;12.30;;;6.90;;
64816;SDS011;53289;45.602;11.904;2023-02-28T04:52:22;16.38;;;6.97;;
64816;SDS011;53289;45.602;11.904;2023-02-28T04:54:48;11.35;;;6.28;;
64816;SDS011;53289;45.602;11.904;2023-02-28T04:57:14;13.55;;;7.47;;
64816;SDS011;53289;45.602;11.904;2023-02-28T04:59:40;12.10;;;6.53;;
64816;SDS011;53289;45.602;11.904;2023-02-28T05:02:06;11.20;;;6.82;;
64816;SDS011;53289;45.602;11.904;2023-02-28T05:04:33;11.68;;;6.90;;
64816;SDS011;53289;45.602;11.904;2023-02-28T05:06:59;12.52;;;6.72;;
64816;SDS011;53289;45.602;11.904;2023-02-28T05:09:26;13.52;;;7.05;;
64816;SDS011;53289;45.602;11.904;2023-02-28T05:11:53;13.13;;;6.30;;
64816;SDS011;53289;45.602;11.904;2023-02-28T05:14:19;11.82;;;6.60;;
64816;SDS011;53289;45.602;11.904;2023-02-28T05:16:45;13.05;;;6.95;;
64816;SDS011;53289;45.602;11.904;2023-02-28T05:19:11;13.35;;;7.03;;
64816;SDS011;53289;45.602;11.904;2023-02-28T05:21:41;14.10;;;7.05;;
64816;SDS011;53289;45.602;11.904;2023-02-28T05:24:18;13.68;;;7.35;;
64816;SDS011;53289;45.602;11.904;2023-02-28T05:26:53;10.85;;;6.03;;
64816;SDS011;53289;45.602;11.904;2023-02-28T05:29:20;13.70;;;7.40;;
64816;SDS011;53289;45.602;11.904;2023-02-28T05:31:47;14.55;;;7.90;;
64816;SDS011;53289;45.602;11.904;2023-02-28T05:34:13;13.80;;;7.20;;
64816;SDS011;53289;45.602;11.904;2023-02-28T05:36:41;14.70;;;6.60;;
64816;SDS011;53289;45.602;11.904;2023-02-28T05:39:07;14.48;;;7.35;;
64816;SDS011;53289;45.602;11.904;2023-02-28T05:44:12;13.45;;;7.25;;
64816;SDS011;53289;45.602;11.904;2023-02-28T05:49:07;14.60;;;6.93;;
64816;SDS011;53289;45.602;11.904;2023-02-28T05:51:33;15.77;;;7.13;;
64816;SDS011;53289;45.602;11.904;2023-02-28T05:56:30;13.35;;;7.50;;
64816;SDS011;53289;45.602;11.904;2023-02-28T05:58:57;13.02;;;7.03;;
64816;SDS011;53289;45.602;11.904;2023-02-28T06:03:55;18.87;;;7.97;;
64816;SDS011;53289;45.602;11.904;2023-02-28T06:06:21;13.57;;;7.28;;
64816;SDS011;53289;45.602;11.904;2023-02-28T06:08:47;15.32;;;7.55;;
64816;SDS011;53289;45.602;11.904;2023-02-28T06:11:13;12.95;;;6.68;;
64816;SDS011;53289;45.602;11.904;2023-02-28T06:13:39;14.05;;;6.75;;
64816;SDS011;53289;45.602;11.904;2023-02-28T06:16:05;17.38;;;7.10;;
64816;SDS011;53289;45.602;11.904;2023-02-28T06:18:31;15.82;;;7.38;;
64816;SDS011;53289;45.602;11.904;2023-02-28T06:20:57;15.68;;;7.65;;
64816;SDS011;53289;45.602;11.904;2023-02-28T06:23:23;15.38;;;7.38;;
64816;SDS011;53289;45.602;11.904;2023-02-28T06:25:49;14.45;;;6.68;;
64816;SDS011;53289;45.602;11.904;2023-02-28T06:28:15;12.18;;;6.53;;
64816;SDS011;53289;45.602;11.904;2023-02-28T06:30:41;16.63;;;7.75;;
64816;SDS011;53289;45.602;11.904;2023-02-28T06:33:07;15.18;;;7.32;;
64816;SDS011;53289;45.602;11.904;2023-02-28T06:35:33;13.98;;;7.00;;
64816;SDS011;53289;45.602;11.904;2023-02-28T06:37:59;15.95;;;8.27;;
64816;SDS011;53289;45.602;11.904;2023-02-28T06:40:25;13.32;;;6.70;;
64816;SDS011;53289;45.602;11.904;2023-02-28T06:42:51;15.75;;;7.65;;
64816;SDS011;53289;45.602;11.904;2023-02-28T06:45:17;14.35;;;7.40;;
64816;SDS011;53289;45.602;11.904;2023-02-28T06:47:43;13.10;;;7.07;;
64816;SDS011;53289;45.602;11.904;2023-02-28T06:50:11;15.43;;;7.03;;
64816;SDS011;53289;45.602;11.904;2023-02-28T06:52:38;13.43;;;6.97;;
64816;SDS011;53289;45.602;11.904;2023-02-28T06:55:04;14.93;;;6.97;;
64816;SDS011;53289;45.602;11.904;2023-02-28T06:57:31;15.07;;;7.40;;
64816;SDS011;53289;45.602;11.904;2023-02-28T06:59:59;14.88;;;7.72;;
64816;SDS011;53289;45.602;11.904;2023-02-28T07:02:27;13.85;;;7.30;;
64816;SDS011;53289;45.602;11.904;2023-02-28T07:04:53;14.05;;;7.50;;
64816;SDS011;53289;45.602;11.904;2023-02-28T07:07:19;16.75;;;8.23;;
64816;SDS011;53289;45.602;11.904;2023-02-28T07:09:45;15.07;;;7.82;;
64816;SDS011;53289;45.602;11.904;2023-02-28T07:12:11;15.32;;;7.72;;
64816;SDS011;53289;45.602;11.904;2023-02-28T07:14:37;19.13;;;8.77;;
64816;SDS011;53289;45.602;11.904;2023-02-28T07:17:03;21.15;;;10.38;;
64816;SDS011;53289;45.602;11.904;2023-02-28T07:19:29;21.38;;;9.68;;
64816;SDS011;53289;45.602;11.904;2023-02-28T07:21:55;13.90;;;7.63;;
64816;SDS011;53289;45.602;11.904;2023-02-28T07:24:21;17.98;;;9.15;;
64816;SDS011;53289;45.602;11.904;2023-02-28T07:26:48;17.40;;;8.88;;
64816;SDS011;53289;45.602;11.904;2023-02-28T07:29:14;16.38;;;7.90;;
64816;SDS011;53289;45.602;11.904;2023-02-28T07:31:40;19.50;;;9.43;;
64816;SDS011;53289;45.602;11.904;2023-02-28T07:34:06;17.38;;;8.55;;
64816;SDS011;53289;45.602;11.904;2023-02-28T07:36:32;17.40;;;8.27;;
64816;SDS011;53289;45.602;11.904;2023-02-28T07:38:58;19.17;;;8.25;;
64816;SDS011;53289;45.602;11.904;2023-02-28T07:41:24;16.13;;;8.13;;
64816;SDS011;53289;45.602;11.904;2023-02-28T07:43:55;16.85;;;8.15;;
64816;SDS011;53289;45.602;11.904;2023-02-28T07:46:22;16.55;;;7.70;;
64816;SDS011;53289;45.602;11.904;2023-02-28T07:48:48;14.60;;;7.95;;
64816;SDS011;53289;45.602;11.904;2023-02-28T07:51:14;15.50;;;7.35;;
64816;SDS011;53289;45.602;11.904;2023-02-28T07:53:40;17.75;;;8.30;;
64816;SDS011;53289;45.602;11.904;2023-02-28T07:56:06;15.75;;;7.30;;
64816;SDS011;53289;45.602;11.904;2023-02-28T07:58:32;14.82;;;7.38;;
64816;SDS011;53289;45.602;11.904;2023-02-28T08:01:04;18.42;;;8.27;;
64816;SDS011;53289;45.602;11.904;2023-02-28T08:03:35;14.02;;;7.70;;
64816;SDS011;53289;45.602;11.904;2023-02-28T08:06:02;14.82;;;7.43;;
64816;SDS011;53289;45.602;11.904;2023-02-28T08:08:30;12.57;;;6.63;;
64816;SDS011;53289;45.602;11.904;2023-02-28T08:11:00;12.65;;;7.43;;
64816;SDS011;53289;45.602;11.904;2023-02-28T08:13:27;15.27;;;7.55;;
64816;SDS011;53289;45.602;11.904;2023-02-28T08:15:55;14.82;;;7.45;;
64816;SDS011;53289;45.602;11.904;2023-02-28T08:18:22;13.88;;;7.40;;
64816;SDS011;53289;45.602;11.904;2023-02-28T08:20:48;14.65;;;7.90;;
64816;SDS011;53289;45.602;11.904;2023-02-28T08:23:14;14.65;;;7.20;;
64816;SDS011;53289;45.602;11.904;2023-02-28T08:25:40;14.57;;;7.05;;
64816;SDS011;53289;45.602;11.904;2023-02-28T08:28:06;14.23;;;6.97;;
64816;SDS011;53289;45.602;11.904;2023-02-28T08:30:32;15.13;;;7.43;;
64816;SDS011;53289;45.602;11.904;2023-02-28T08:35:30;14.38;;;7.20;;
64816;SDS011;53289;45.602;11.904;2023-02-28T08:37:56;13.00;;;6.80;;
64816;SDS011;53289;45.602;11.904;2023-02-28T08:40:23;13.55;;;7.72;;
64816;SDS011;53289;45.602;11.904;2023-02-28T08:42:50;14.95;;;7.57;;
64816;SDS011;53289;45.602;11.904;2023-02-28T08:45:16;13.48;;;7.85;;
64816;SDS011;53289;45.602;11.904;2023-02-28T08:47:42;14.27;;;7.43;;
64816;SDS011;53289;45.602;11.904;2023-02-28T08:50:08;17.30;;;7.03;;
64816;SDS011;53289;45.602;11.904;2023-02-28T08:52:34;13.23;;;6.75;;
64816;SDS011;53289;45.602;11.904;2023-02-28T08:55:00;13.57;;;6.82;;
64816;SDS011;53289;45.602;11.904;2023-02-28T08:57:26;14.98;;;7.53;;
64816;SDS011;53289;45.602;11.904;2023-02-28T08:59:52;15.32;;;7.07;;
64816;SDS011;53289;45.602;11.904;2023-02-28T09:02:18;12.95;;;7.10;;
64816;SDS011;53289;45.602;11.904;2023-02-28T09:04:44;14.93;;;7.90;;
64816;SDS011;53289;45.602;11.904;2023-02-28T09:07:11;13.68;;;7.07;;
64816;SDS011;53289;45.602;11.904;2023-02-28T09:12:06;14.32;;;7.63;;
64816;SDS011;53289;45.602;11.904;2023-02-28T09:14:32;14.23;;;7.07;;
64816;SDS011;53289;45.602;11.904;2023-02-28T09:16:58;15.98;;;6.60;;
64816;SDS011;53289;45.602;11.904;2023-02-28T09:19:24;14.07;;;6.53;;
64816;SDS011;53289;45.602;11.904;2023-02-28T09:21:50;17.55;;;7.10;;
64816;SDS011;53289;45.602;11.904;2023-02-28T09:24:17;12.90;;;6.82;;
64816;SDS011;53289;45.602;11.904;2023-02-28T09:26:45;13.85;;;7.28;;
64816;SDS011;53289;45.602;11.904;2023-02-28T09:29:10;13.30;;;6.90;;
64816;SDS011;53289;45.602;11.904;2023-02-28T09:31:37;12.60;;;6.07;;
64816;SDS011;53289;45.602;11.904;2023-02-28T09:34:03;14.82;;;7.53;;
64816;SDS011;53289;45.602;11.904;2023-02-28T09:36:29;14.25;;;6.90;;
64816;SDS011;53289;45.602;11.904;2023-02-28T09:38:55;12.45;;;6.68;;
64816;SDS011;53289;45.602;11.904;2023-02-28T09:41:23;13.52;;;6.90;;
64816;SDS011;53289;45.602;11.904;2023-02-28T09:43:57;10.88;;;6.28;;
64816;SDS011;53289;45.602;11.904;2023-02-28T09:49:13;11.45;;;6.10;;
64816;SDS011;53289;45.602;11.904;2023-02-28T09:51:45;17.75;;;7.38;;
64816;SDS011;53289;45.602;11.904;2023-02-28T09:54:15;16.23;;;6.95;;
64816;SDS011;53289;45.602;11.904;2023-02-28T09:56:44;14.00;;;6.25;;
64816;SDS011;53289;45.602;11.904;2023-02-28T09:59:20;13.60;;;6.70;;
64816;SDS011;53289;45.602;11.904;2023-02-28T10:01:57;13.13;;;6.53;;
64816;SDS011;53289;45.602;11.904;2023-02-28T10:04:54;13.15;;;6.60;;
64816;SDS011;53289;45.602;11.904;2023-02-28T10:07:32;10.70;;;6.25;;
64816;SDS011;53289;45.602;11.904;2023-02-28T10:10:26;10.45;;;5.43;;
64816;SDS011;53289;45.602;11.904;2023-02-28T10:12:59;10.35;;;5.45;;
64816;SDS011;53289;45.602;11.904;2023-02-28T10:15:29;11.80;;;5.95;;
64816;SDS011;53289;45.602;11.904;2023-02-28T10:17:58;9.43;;;5.65;;
64816;SDS011;53289;45.602;11.904;2023-02-28T10:20:29;11.80;;;6.05;;
64816;SDS011;53289;45.602;11.904;2023-02-28T10:25:36;10.18;;;6.28;;
64816;SDS011;53289;45.602;11.904;2023-02-28T10:28:13;10.40;;;6.40;;
64816;SDS011;53289;45.602;11.904;2023-02-28T10:30:50;12.02;;;5.82;;
64816;SDS011;53289;45.602;11.904;2023-02-28T10:35:57;12.73;;;6.53;;
64816;SDS011;53289;45.602;11.904;2023-02-28T10:41:03;10.63;;;5.78;;
64816;SDS011;53289;45.602;11.904;2023-02-28T10:43:33;13.45;;;6.20;;
64816;SDS011;53289;45.602;11.904;2023-02-28T10:48:38;11.15;;;5.53;;
64816;SDS011;53289;45.602;11.904;2023-02-28T10:51:16;10.68;;;5.47;;
64816;SDS011;53289;45.602;11.904;2023-02-28T10:53:51;10.32;;;6.07;;
64816;SDS011;53289;45.602;11.904;2023-02-28T10:56:22;13.05;;;6.00;;
64816;SDS011;53289;45.602;11.904;2023-02-28T10:58:54;10.13;;;5.68;;
64816;SDS011;53289;45.602;11.904;2023-02-28T11:03:57;11.25;;;6.07;;
64816;SDS011;53289;45.602;11.904;2023-02-28T11:06:31;10.77;;;5.90;;
64816;SDS011;53289;45.602;11.904;2023-02-28T11:08:59;13.52;;;5.70;;
64816;SDS011;53289;45.602;11.904;2023-02-28T11:11:29;16.58;;;5.47;;
64816;SDS011;53289;45.602;11.904;2023-02-28T11:14:06;9.32;;;5.70;;
64816;SDS011;53289;45.602;11.904;2023-02-28T11:16:53;11.95;;;6.68;;
64816;SDS011;53289;45.602;11.904;2023-02-28T11:19:28;11.15;;;6.10;;
64816;SDS011;53289;45.602;11.904;2023-02-28T11:22:00;11.85;;;5.88;;
64816;SDS011;53289;45.602;11.904;2023-02-28T11:24:41;11.50;;;5.78;;
64816;SDS011;53289;45.602;11.904;2023-02-28T11:29:57;11.93;;;6.55;;
64816;SDS011;53289;45.602;11.904;2023-02-28T11:32:33;10.20;;;5.88;;
64816;SDS011;53289;45.602;11.904;2023-02-28T11:40:26;11.98;;;5.40;;
64816;SDS011;53289;45.602;11.904;2023-02-28T11:45:58;10.25;;;5.60;;
64816;SDS011;53289;45.602;11.904;2023-02-28T12:08:11;11.70;;;5.78;;
64816;SDS011;53289;45.602;11.904;2023-02-28T12:24:14;9.15;;;5.47;;
64816;SDS011;53289;45.602;11.904;2023-02-28T12:26:49;10.25;;;5.65;;
64816;SDS011;53289;45.602;11.904;2023-02-28T12:31:51;11.30;;;5.47;;
64816;SDS011;53289;45.602;11.904;2023-02-28T12:34:22;11.90;;;6.22;;
64816;SDS011;53289;45.602;11.904;2023-02-28T12:36:53;9.35;;;5.35;;
64816;SDS011;53289;45.602;11.904;2023-02-28T12:39:28;10.73;;;6.13;;
64816;SDS011;53289;45.602;11.904;2023-02-28T12:42:13;9.95;;;5.63;;
64816;SDS011;53289;45.602;11.904;2023-02-28T12:44:52;9.45;;;5.13;;
64816;SDS011;53289;45.602;11.904;2023-02-28T12:47:34;10.00;;;5.80;;
64816;SDS011;53289;45.602;11.904;2023-02-28T12:50:02;8.70;;;5.30;;
64816;SDS011;53289;45.602;11.904;2023-02-28T12:55:21;10.18;;;5.78;;
64816;SDS011;53289;45.602;11.904;2023-02-28T13:09:41;9.52;;;5.93;;
64816;SDS011;53289;45.602;11.904;2023-02-28T13:12:18;10.07;;;5.95;;
64816;SDS011;53289;45.602;11.904;2023-02-28T13:14:45;9.90;;;5.82;;
64816;SDS011;53289;45.602;11.904;2023-02-28T13:17:12;10.43;;;5.70;;
64816;SDS011;53289;45.602;11.904;2023-02-28T13:22:20;9.10;;;5.55;;
64816;SDS011;53289;45.602;11.904;2023-02-28T13:24:53;11.00;;;5.93;;
64816;SDS011;53289;45.602;11.904;2023-02-28T13:27:23;11.75;;;5.80;;
64816;SDS011;53289;45.602;11.904;2023-02-28T13:29:51;9.77;;;5.65;;
64816;SDS011;53289;45.602;11.904;2023-02-28T13:32:18;11.13;;;6.00;;
64816;SDS011;53289;45.602;11.904;2023-02-28T13:47:39;10.05;;;5.40;;
64816;SDS011;53289;45.602;11.904;2023-02-28T13:52:43;10.45;;;5.32;;
64816;SDS011;53289;45.602;11.904;2023-02-28T14:06:38;10.82;;;5.60;;
64816;SDS011;53289;45.602;11.904;2023-02-28T14:11:46;9.75;;;5.55;;
64816;SDS011;53289;45.602;11.904;2023-02-28T14:17:00;9.73;;;5.75;;
64816;SDS011;53289;45.602;11.904;2023-02-28T14:19:34;10.25;;;6.05;;
64816;SDS011;53289;45.602;11.904;2023-02-28T14:22:05;10.05;;;6.03;;
64816;SDS011;53289;45.602;11.904;2023-02-28T14:36:07;10.43;;;5.78;;
64816;SDS011;53289;45.602;11.904;2023-02-28T14:38:52;11.05;;;5.90;;
64816;SDS011;53289;45.602;11.904;2023-02-28T14:44:19;9.75;;;6.10;;
64816;SDS011;53289;45.602;11.904;2023-02-28T14:46:50;8.82;;;5.15;;
64816;SDS011;53289;45.602;11.904;2023-02-28T14:49:35;9.43;;;5.13;;
64816;SDS011;53289;45.602;11.904;2023-02-28T14:52:17;11.32;;;5.50;;
64816;SDS011;53289;45.602;11.904;2023-02-28T14:54:44;10.57;;;5.93;;
64816;SDS011;53289;45.602;11.904;2023-02-28T14:57:21;10.15;;;5.75;;
64816;SDS011;53289;45.602;11.904;2023-02-28T15:02:58;8.73;;;5.13;;
64816;SDS011;53289;45.602;11.904;2023-02-28T15:05:26;11.23;;;5.60;;
64816;SDS011;53289;45.602;11.904;2023-02-28T15:08:28;10.15;;;5.88;;
64816;SDS011;53289;45.602;11.904;2023-02-28T15:10:51;8.90;;;5.13;;
64816;SDS011;53289;45.602;11.904;2023-02-28T15:13:25;10.90;;;5.80;;
64816;SDS011;53289;45.602;11.904;2023-02-28T15:16:08;10.98;;;5.75;;
64816;SDS011;53289;45.602;11.904;2023-02-28T15:23:42;10.98;;;5.93;;
64816;SDS011;53289;45.602;11.904;2023-02-28T15:28:48;10.02;;;5.65;;
64816;SDS011;53289;45.602;11.904;2023-02-28T15:31:27;9.60;;;5.85;;
64816;SDS011;53289;45.602;11.904;2023-02-28T15:33:55;10.43;;;5.95;;
64816;SDS011;53289;45.602;11.904;2023-02-28T15:36:26;10.05;;;5.70;;
64816;SDS011;53289;45.602;11.904;2023-02-28T15:39:00;8.82;;;5.65;;
64816;SDS011;53289;45.602;11.904;2023-02-28T15:41:30;14.82;;;6.03;;
64816;SDS011;53289;45.602;11.904;2023-02-28T15:47:01;12.55;;;5.88;;
64816;SDS011;53289;45.602;11.904;2023-02-28T15:50:01;11.25;;;6.15;;
64816;SDS011;53289;45.602;11.904;2023-02-28T15:52:32;13.23;;;6.03;;
64816;SDS011;53289;45.602;11.904;2023-02-28T15:55:10;11.88;;;6.35;;
64816;SDS011;53289;45.602;11.904;2023-02-28T15:57:48;13.48;;;6.53;;
64816;SDS011;53289;45.602;11.904;2023-02-28T16:00:19;13.40;;;6.57;;
64816;SDS011;53289;45.602;11.904;2023-02-28T16:02:47;12.43;;;6.18;;
64816;SDS011;53289;45.602;11.904;2023-02-28T16:05:21;12.23;;;6.32;;
64816;SDS011;53289;45.602;11.904;2023-02-28T16:08:15;13.48;;;6.22;;
64816;SDS011;53289;45.602;11.904;2023-02-28T16:10:41;11.52;;;6.38;;
64816;SDS011;53289;45.602;11.904;2023-02-28T16:13:08;14.68;;;6.57;;
64816;SDS011;53289;45.602;11.904;2023-02-28T16:15:38;11.18;;;6.15;;
64816;SDS011;53289;45.602;11.904;2023-02-28T16:18:07;12.50;;;5.95;;
64816;SDS011;53289;45.602;11.904;2023-02-28T16:20:37;13.10;;;6.55;;
64816;SDS011;53289;45.602;11.904;2023-02-28T16:23:04;10.90;;;6.00;;
64816;SDS011;53289;45.602;11.904;2023-02-28T16:25:34;12.68;;;6.20;;
64816;SDS011;53289;45.602;11.904;2023-02-28T16:28:02;13.50;;;6.40;;
64816;SDS011;53289;45.602;11.904;2023-02-28T16:30:29;14.63;;;6.68;;
64816;SDS011;53289;45.602;11.904;2023-02-28T16:32:56;16.08;;;6.88;;
64816;SDS011;53289;45.602;11.904;2023-02-28T16:35:23;14.48;;;6.68;;
64816;SDS011;53289;45.602;11.904;2023-02-28T16:37:50;15.25;;;6.53;;
64816;SDS011;53289;45.602;11.904;2023-02-28T16:40:18;14.27;;;6.60;;
64816;SDS011;53289;45.602;11.904;2023-02-28T16:42:49;12.80;;;7.03;;
64816;SDS011;53289;45.602;11.904;2023-02-28T16:45:25;12.45;;;6.45;;
64816;SDS011;53289;45.602;11.904;2023-02-28T16:47:52;15.40;;;6.75;;
64816;SDS011;53289;45.602;11.904;2023-02-28T16:52:46;16.20;;;6.50;;
64816;SDS011;53289;45.602;11.904;2023-02-28T16:55:13;15.05;;;6.25;;
64816;SDS011;53289;45.602;11.904;2023-02-28T16:57:39;13.75;;;6.32;;
64816;SDS011;53289;45.602;11.904;2023-02-28T17:00:06;12.10;;;6.28;;
64816;SDS011;53289;45.602;11.904;2023-02-28T17:02:34;15.38;;;7.25;;
64816;SDS011;53289;45.602;11.904;2023-02-28T17:05:00;14.63;;;7.13;;
64816;SDS011;53289;45.602;11.904;2023-02-28T17:07:26;13.55;;;7.35;;
64816;SDS011;53289;45.602;11.904;2023-02-28T17:09:51;14.90;;;7.32;;
64816;SDS011;53289;45.602;11.904;2023-02-28T17:12:17;16.45;;;7.45;;
64816;SDS011;53289;45.602;11.904;2023-02-28T17:14:43;13.45;;;7.68;;
64816;SDS011;53289;45.602;11.904;2023-02-28T17:17:10;12.70;;;7.05;;
64816;SDS011;53289;45.602;11.904;2023-02-28T17:19:45;15.63;;;7.50;;
64816;SDS011;53289;45.602;11.904;2023-02-28T17:22:11;12.38;;;7.18;;
64816;SDS011;53289;45.602;11.904;2023-02-28T17:24:37;14.48;;;8.32;;
64816;SDS011;53289;45.602;11.904;2023-02-28T17:27:03;13.32;;;7.22;;
64816;SDS011;53289;45.602;11.904;2023-02-28T17:29:29;13.48;;;7.88;;
64816;SDS011;53289;45.602;11.904;2023-02-28T17:31:55;18.50;;;9.50;;
64816;SDS011;53289;45.602;11.904;2023-02-28T17:34:21;17.23;;;9.05;;
64816;SDS011;53289;45.602;11.904;2023-02-28T17:36:47;21.15;;;9.73;;
64816;SDS011;53289;45.602;11.904;2023-02-28T17:39:15;19.52;;;8.82;;
64816;SDS011;53289;45.602;11.904;2023-02-28T17:44:21;19.13;;;9.85;;
64816;SDS011;53289;45.602;11.904;2023-02-28T17:46:48;19.92;;;9.75;;
64816;SDS011;53289;45.602;11.904;2023-02-28T17:49:16;17.35;;;9.77;;
64816;SDS011;53289;45.602;11.904;2023-02-28T17:51:43;20.90;;;10.63;;
64816;SDS011;53289;45.602;11.904;2023-02-28T17:54:09;18.95;;;9.18;;
64816;SDS011;53289;45.602;11.904;2023-02-28T17:56:34;16.52;;;9.50;;